Time;durP1;ratioP1;P1;durP2;ratioP2;P2;SDS_P1;SDS_P2;PMS_P1;PMS_P2;Temp;Humidity;BMP_temperature;BMP_pressure;BME280_temperature;BME280_humidity;BME280_pressure;Samples;Min_cycle;Max_cycle;Signal;HPM_P1;HPM_P2
2023/12/16 00:01:28;;;;;;;19.65;4.50;;;;;;;7.79;100.00;103808.72;10333599;28;20084;-72
2023/12/16 00:06:30;;;;;;;22.65;5.88;;;;;;;7.77;100.00;103818.75;10334945;28;20042;-73
2023/12/16 00:11:30;;;;;;;21.20;5.22;;;;;;;7.86;100.00;103817.25;10331950;28;20038;-73
2023/12/16 00:16:31;;;;;;;12.05;3.75;;;;;;;7.93;100.00;103816.69;10334278;28;20088;-73
2023/12/16 00:21:31;;;;;;;6.35;2.45;;;;;;;7.74;100.00;103807.31;10332231;28;20390;-72
2023/12/16 00:26:31;;;;;;;6.60;3.53;;;;;;;7.45;100.00;103804.81;10333744;28;20034;-72
2023/12/16 00:31:32;;;;;;;14.85;4.55;;;;;;;7.35;100.00;103819.91;10330705;28;20092;-72
2023/12/16 00:36:32;;;;;;;30.38;4.88;;;;;;;7.29;100.00;103812.22;10332667;28;20437;-72
2023/12/16 00:41:33;;;;;;;12.73;4.32;;;;;;;7.15;100.00;103805.94;10332762;28;20026;-73
2023/12/16 00:46:33;;;;;;;11.52;4.32;;;;;;;7.15;100.00;103810.47;10331706;28;20380;-73
2023/12/16 00:51:34;;;;;;;13.15;4.30;;;;;;;7.11;100.00;103804.41;10331037;28;20042;-73
2023/12/16 00:56:34;;;;;;;4.60;3.05;;;;;;;7.06;100.00;103798.47;10331350;28;20512;-72
2023/12/16 01:01:35;;;;;;;9.80;3.58;;;;;;;7.03;100.00;103790.59;10331427;28;20122;-72
2023/12/16 01:06:35;;;;;;;11.23;5.03;;;;;;;7.01;100.00;103797.91;10333810;28;20177;-73
2023/12/16 01:11:36;;;;;;;13.38;5.00;;;;;;;6.98;100.00;103803.50;10330290;28;20344;-72
2023/12/16 01:16:36;;;;;;;10.07;4.95;;;;;;;6.98;100.00;103800.81;10330027;28;20351;-73
2023/12/16 01:21:41;;;;;;;13.93;5.65;;;;;;;6.94;100.00;103799.28;10332262;28;20501;-73
2023/12/16 01:26:41;;;;;;;14.00;6.25;;;;;;;6.87;100.00;103789.91;10331175;28;20034;-72
2023/12/16 01:31:42;;;;;;;18.73;6.30;;;;;;;6.78;100.00;103785.97;10331043;28;20412;-73
2023/12/16 01:36:42;;;;;;;29.50;6.28;;;;;;;6.80;100.00;103778.66;10330597;28;20537;-73
2023/12/16 01:41:43;;;;;;;5.22;4.38;;;;;;;6.82;100.00;103787.50;10330717;28;20105;-72
2023/12/16 01:46:43;;;;;;;17.67;7.82;;;;;;;6.92;100.00;103794.03;10329526;28;20525;-72
2023/12/16 01:51:44;;;;;;;10.57;5.88;;;;;;;6.98;100.00;103782.81;10330114;28;20474;-73
2023/12/16 01:56:45;;;;;;;14.32;6.25;;;;;;;7.09;100.00;103789.31;10312264;28;20051;-72
2023/12/16 02:01:45;;;;;;;24.17;8.07;;;;;;;7.06;100.00;103781.44;10312731;28;20026;-73
2023/12/16 02:06:46;;;;;;;17.58;6.45;;;;;;;7.05;100.00;103775.19;10335789;28;20042;-72
2023/12/16 02:11:47;;;;;;;13.27;6.03;;;;;;;7.08;100.00;103776.78;10336980;28;20434;-73
2023/12/16 02:16:47;;;;;;;20.92;4.90;;;;;;;7.09;100.00;103768.63;10336732;28;20122;-73
2023/12/16 02:21:48;;;;;;;20.67;6.07;;;;;;;7.15;100.00;103779.00;10336727;28;20451;-73
2023/12/16 02:26:48;;;;;;;19.08;5.13;;;;;;;7.17;100.00;103777.03;10335698;28;20462;-73
2023/12/16 02:31:49;;;;;;;24.98;5.55;;;;;;;7.16;100.00;103764.53;10337393;28;20049;-73
2023/12/16 02:36:49;;;;;;;19.50;5.45;;;;;;;7.15;100.00;103783.53;10335552;28;20121;-73
2023/12/16 02:41:50;;;;;;;17.45;5.72;;;;;;;7.10;100.00;103797.28;10336457;28;20038;-73
2023/12/16 02:46:50;;;;;;;8.77;4.55;;;;;;;7.09;100.00;103792.03;10335621;28;20477;-72
2023/12/16 02:51:50;;;;;;;17.48;6.88;;;;;;;7.04;100.00;103778.84;10337193;28;20181;-73
2023/12/16 02:56:51;;;;;;;5.22;4.57;;;;;;;7.00;100.00;103774.63;10334946;28;20548;-72
2023/12/16 03:01:51;;;;;;;19.20;6.25;;;;;;;6.92;100.00;103775.16;10334287;28;20467;-73
2023/12/16 03:06:52;;;;;;;11.70;6.25;;;;;;;6.89;100.00;103771.78;10334691;28;20081;-73
2023/12/16 03:11:53;;;;;;;19.27;7.35;;;;;;;6.86;100.00;103766.59;10333923;28;20454;-72
2023/12/16 03:16:53;;;;;;;19.48;6.57;;;;;;;6.82;100.00;103776.72;10335182;28;20509;-72
2023/12/16 03:21:53;;;;;;;34.50;7.28;;;;;;;6.74;100.00;103766.47;10334202;28;20487;-73
2023/12/16 03:26:54;;;;;;;5.53;5.00;;;;;;;6.65;100.00;103775.16;10335159;28;20463;-73
2023/12/16 03:31:55;;;;;;;16.27;5.28;;;;;;;6.65;100.00;103785.06;10332458;28;20034;-73
2023/12/16 03:36:55;;;;;;;27.50;7.78;;;;;;;6.60;100.00;103782.66;10333207;28;20526;-72
2023/12/16 03:41:56;;;;;;;13.02;4.35;;;;;;;6.53;100.00;103767.88;10333661;28;20138;-72
2023/12/16 03:46:56;;;;;;;27.05;6.90;;;;;;;6.54;100.00;103780.41;10333682;28;20100;-72
2023/12/16 03:51:57;;;;;;;21.13;9.50;;;;;;;6.50;100.00;103781.53;10333329;28;20042;-73
2023/12/16 03:56:57;;;;;;;26.52;6.32;;;;;;;6.54;100.00;103777.72;10332327;28;20050;-74
2023/12/16 04:01:57;;;;;;;33.78;7.93;;;;;;;6.57;100.00;103771.22;10332422;28;20130;-73
2023/12/16 04:07:00;;;;;;;25.88;9.07;;;;;;;6.49;100.00;103764.53;10315090;28;20541;-72
2023/12/16 04:12:01;;;;;;;25.95;7.95;;;;;;;6.43;100.00;103756.84;10315175;28;20134;-72
2023/12/16 04:17:02;;;;;;;25.23;6.85;;;;;;;6.47;100.00;103760.19;10331109;28;20027;-72
2023/12/16 04:22:02;;;;;;;12.82;6.25;;;;;;;6.48;100.00;103745.81;10332549;28;20038;-73
2023/12/16 04:27:03;;;;;;;13.18;5.47;;;;;;;6.47;100.00;103741.34;10332745;28;20478;-73
2023/12/16 04:32:03;;;;;;;29.42;7.85;;;;;;;6.47;100.00;103744.91;10331644;28;20026;-72
2023/12/16 04:37:04;;;;;;;17.60;8.38;;;;;;;6.49;100.00;103753.75;10331465;28;20038;-72
2023/12/16 04:42:04;;;;;;;25.27;8.05;;;;;;;6.45;100.00;103763.00;10331750;28;20037;-73
2023/12/16 04:47:05;;;;;;;25.80;6.78;;;;;;;6.45;100.00;103749.56;10331688;28;20053;-73
2023/12/16 04:52:05;;;;;;;27.25;7.15;;;;;;;6.51;100.00;103756.38;10331993;28;20479;-72
2023/12/16 04:57:06;;;;;;;14.75;6.38;;;;;;;6.49;100.00;103758.28;10332472;28;20058;-73
2023/12/16 05:02:06;;;;;;;18.33;6.93;;;;;;;6.44;100.00;103761.25;10331107;28;20031;-73
2023/12/16 05:07:06;;;;;;;28.50;7.85;;;;;;;6.43;100.00;103758.69;10331833;28;20061;-73
2023/12/16 05:12:07;;;;;;;31.23;6.95;;;;;;;6.39;100.00;103760.72;10330708;28;20046;-73
2023/12/16 05:17:07;;;;;;;14.55;7.15;;;;;;;6.40;100.00;103766.97;10329902;28;20104;-73
2023/12/16 05:22:08;;;;;;;21.20;7.32;;;;;;;6.39;100.00;103767.94;10331250;28;20066;-73
2023/12/16 05:27:08;;;;;;;25.27;7.28;;;;;;;6.38;100.00;103764.38;10329964;28;20038;-73
2023/12/16 05:32:09;;;;;;;22.75;5.60;;;;;;;6.32;100.00;103745.94;10333101;28;20178;-72
2023/12/16 05:37:09;;;;;;;19.80;7.40;;;;;;;6.32;100.00;103748.63;10330706;28;20170;-72
2023/12/16 05:42:10;;;;;;;12.98;5.32;;;;;;;6.32;100.00;103753.13;10337832;28;20399;-72
2023/12/16 05:47:10;;;;;;;29.33;9.32;;;;;;;6.37;100.00;103748.31;10337785;28;20029;-72
2023/12/16 05:52:11;;;;;;;40.05;9.27;;;;;;;6.38;100.00;103750.03;10337508;28;20053;-72
2023/12/16 05:57:11;;;;;;;10.60;6.53;;;;;;;6.43;100.00;103754.16;10336803;28;20180;-72
2023/12/16 06:02:12;;;;;;;22.73;6.30;;;;;;;6.44;100.00;103757.72;10337050;28;20053;-73
2023/12/16 06:07:12;;;;;;;27.80;8.10;;;;;;;6.46;100.00;103761.19;10338282;28;20443;-73
2023/12/16 06:12:13;;;;;;;29.83;7.97;;;;;;;6.47;100.00;103760.19;10337343;28;20137;-72
2023/12/16 06:17:14;;;;;;;18.33;6.32;;;;;;;6.45;100.00;103775.59;10337036;28;20042;-72
2023/12/16 06:22:14;;;;;;;12.05;6.65;;;;;;;6.42;100.00;103768.59;10319620;28;20061;-73
2023/12/16 06:27:15;;;;;;;22.05;6.75;;;;;;;6.43;100.00;103761.38;10336420;28;20038;-73
2023/12/16 06:32:15;;;;;;;31.48;6.82;;;;;;;6.42;100.00;103756.97;10336873;28;20045;-73
2023/12/16 06:37:16;;;;;;;32.13;8.55;;;;;;;6.46;100.00;103777.31;10335847;28;20168;-72
2023/12/16 06:42:16;;;;;;;16.90;6.32;;;;;;;6.38;100.00;103774.25;10350365;28;20030;-72
2023/12/16 06:47:17;;;;;;;19.17;6.70;;;;;;;6.42;100.00;103778.50;10334629;28;20077;-72
2023/12/16 06:52:17;;;;;;;31.38;8.05;;;;;;;6.46;100.00;103786.25;10333815;28;20109;-72
2023/12/16 06:57:18;;;;;;;27.63;8.40;;;;;;;6.42;100.00;103784.75;10335859;28;20078;-72
2023/12/16 07:02:19;;;;;;;17.10;6.72;;;;;;;6.43;100.00;103782.91;10335383;28;20109;-73
2023/12/16 07:07:19;;;;;;;12.80;6.63;;;;;;;6.38;100.00;103799.38;10334815;28;20421;-72
2023/12/16 07:12:20;;;;;;;19.13;7.75;;;;;;;6.34;100.00;103802.34;10317185;28;20125;-72
2023/12/16 07:17:20;;;;;;;8.40;4.53;;;;;;;6.28;100.00;103799.06;10335520;28;20118;-73
2023/12/16 07:22:21;;;;;;;25.98;5.55;;;;;;;6.32;100.00;103794.38;10335332;28;20038;-72
2023/12/16 07:27:22;;;;;;;18.15;8.68;;;;;;;6.41;100.00;103811.75;10336042;28;20061;-72
2023/12/16 07:32:26;;;;;;;29.33;6.63;;;;;;;6.39;100.00;103802.91;10335047;28;20156;-73
2023/12/16 07:37:26;;;;;;;24.77;6.47;;;;;;;6.48;100.00;103811.25;10333687;28;20458;-72
2023/12/16 07:42:26;;;;;;;23.33;7.20;;;;;;;6.61;100.00;103815.88;10336718;28;20113;-72
2023/12/16 07:47:27;;;;;;;25.98;5.50;;;;;;;6.69;100.00;103803.59;10334620;28;20061;-73
2023/12/16 07:52:27;;;;;;;22.90;6.90;;;;;;;6.83;100.00;103799.13;10333892;28;20077;-73
2023/12/16 07:57:28;;;;;;;28.48;6.38;;;;;;;6.98;100.00;103814.28;10334091;28;20050;-73
2023/12/16 08:02:28;;;;;;;22.98;8.30;;;;;;;7.06;100.00;103811.94;10332472;28;20042;-72
2023/12/16 08:07:29;;;;;;;18.25;5.65;;;;;;;7.23;100.00;103805.41;10333248;28;20034;-73
2023/12/16 08:12:29;;;;;;;19.38;7.28;;;;;;;7.34;100.00;103819.03;10331855;28;20374;-73
2023/12/16 08:17:29;;;;;;;22.30;6.60;;;;;;;7.39;100.00;103813.31;10333548;28;20069;-72
2023/12/16 08:22:30;;;;;;;19.40;7.78;;;;;;;7.46;100.00;103806.53;10332677;28;20072;-71
2023/12/16 08:27:30;;;;;;;21.30;7.70;;;;;;;7.52;100.00;103808.81;10332470;28;20061;-73
2023/12/16 08:32:31;;;;;;;22.27;6.78;;;;;;;7.67;100.00;103818.53;10330478;28;20054;-72
2023/12/16 08:37:31;;;;;;;23.08;7.03;;;;;;;7.78;100.00;103820.47;10331318;28;20058;-72
2023/12/16 08:42:31;;;;;;;29.63;7.53;;;;;;;7.88;100.00;103820.69;10332439;28;20030;-73
2023/12/16 08:47:32;;;;;;;12.35;6.18;;;;;;;7.97;100.00;103813.78;10332060;28;20109;-73
2023/12/16 08:52:33;;;;;;;42.22;8.48;;;;;;;8.13;100.00;103828.75;10332473;28;20034;-73
2023/12/16 08:57:33;;;;;;;18.88;6.43;;;;;;;8.21;100.00;103840.88;10331360;28;20058;-73
2023/12/16 09:02:33;;;;;;;25.73;7.43;;;;;;;8.29;100.00;103849.25;10331322;28;20062;-72
2023/12/16 09:07:34;;;;;;;24.70;5.32;;;;;;;8.36;100.00;103831.69;10333104;28;20041;-73
2023/12/16 09:12:35;;;;;;;17.75;7.47;;;;;;;8.52;100.00;103861.13;10331540;28;20038;-73
2023/12/16 09:17:35;;;;;;;15.07;6.78;;;;;;;8.66;100.00;103868.25;10340444;28;20425;-73
2023/12/16 09:22:36;;;;;;;22.23;7.05;;;;;;;8.74;100.00;103874.84;10338459;28;20022;-73
2023/12/16 09:27:36;;;;;;;23.83;8.98;;;;;;;8.80;100.00;103866.25;10337746;28;20112;-72
2023/12/16 09:32:37;;;;;;;13.45;6.45;;;;;;;8.92;100.00;103877.13;10338395;28;20034;-72
2023/12/16 09:37:37;;;;;;;26.98;7.38;;;;;;;8.96;100.00;103886.72;10339335;28;20030;-73
2023/12/16 09:42:37;;;;;;;14.48;6.75;;;;;;;9.04;100.00;103887.91;10339726;28;20057;-73
2023/12/16 09:47:38;;;;;;;16.60;6.28;;;;;;;9.05;100.00;103892.31;10337933;28;20512;-72
2023/12/16 09:52:41;;;;;;;18.35;6.95;;;;;;;9.10;100.00;103904.66;10339637;28;20022;-72
2023/12/16 09:57:42;;;;;;;13.07;5.00;;;;;;;9.12;100.00;103910.78;10339360;28;20101;-72
2023/12/16 10:02:46;;;;;;;9.60;4.63;;;;;;;9.10;100.00;103899.25;10338412;28;20490;-72
2023/12/16 10:07:46;;;;;;;7.95;6.13;;;;;;;9.21;100.00;103902.00;10336293;28;20030;-73
2023/12/16 10:12:47;;;;;;;21.95;9.32;;;;;;;9.21;100.00;103900.16;10337232;28;20038;-73
2023/12/16 10:17:49;;;;;;;8.40;6.57;;;;;;;9.24;100.00;103899.91;10338164;28;20034;-72
2023/12/16 10:22:49;;;;;;;16.13;7.35;;;;;;;9.25;100.00;103903.47;10338130;28;20042;-72
2023/12/16 10:27:50;;;;;;;24.52;8.48;;;;;;;9.30;100.00;103912.13;10335350;28;20041;-72
2023/12/16 10:32:50;;;;;;;13.77;7.70;;;;;;;9.22;100.00;103909.13;10337194;28;20529;-73
2023/12/16 10:37:52;;;;;;;29.92;8.88;;;;;;;9.10;100.00;103901.94;10337760;28;20423;-73
2023/12/16 10:42:52;;;;;;;17.63;11.63;;;;;;;9.07;100.00;103903.91;10335596;28;20035;-72
2023/12/16 10:47:54;;;;;;;20.45;13.02;;;;;;;9.03;100.00;103893.41;10335658;28;20113;-72
2023/12/16 10:52:55;;;;;;;17.15;10.63;;;;;;;9.04;100.00;103890.59;10334848;28;20404;-73
2023/12/16 10:58:28;;;;;;;18.52;9.38;;;;;;;9.05;100.00;103881.50;10335722;28;20053;-72
2023/12/16 11:03:33;;;;;;;10.27;8.80;;;;;;;9.03;100.00;103864.56;10332389;28;20109;-72
2023/12/16 11:08:34;;;;;;;19.88;11.65;;;;;;;9.05;100.00;103862.59;10333437;28;20089;-73
2023/12/16 11:13:35;;;;;;;11.63;9.95;;;;;;;9.12;100.00;103862.13;10333318;28;20058;-72
2023/12/16 11:18:35;;;;;;;17.25;9.52;;;;;;;9.09;100.00;103852.41;10336019;28;20113;-72
2023/12/16 11:23:46;;;;;;;20.98;10.75;;;;;;;9.21;100.00;103834.41;10317732;28;20026;-72
2023/12/16 11:28:52;;;;;;;16.02;10.50;;;;;;;9.19;100.00;103836.34;10335352;28;20477;-68
2023/12/16 11:33:53;;;;;;;18.25;14.75;;;;;;;9.13;100.00;103831.44;10334924;28;20026;-73
2023/12/16 11:38:53;;;;;;;13.32;8.77;;;;;;;9.19;100.00;103825.53;10333615;28;20030;-73
2023/12/16 11:43:54;;;;;;;16.27;8.93;;;;;;;9.22;100.00;103819.88;10332317;28;20116;-73
2023/12/16 11:48:55;;;;;;;17.95;8.07;;;;;;;9.23;100.00;103808.97;10335088;28;20042;-73
2023/12/16 11:53:55;;;;;;;7.18;6.47;;;;;;;9.29;100.00;103804.94;10332466;28;20046;-73
2023/12/16 11:58:59;;;;;;;9.13;4.88;;;;;;;9.25;100.00;103798.91;10331811;28;20394;-73
2023/12/16 12:04:00;;;;;;;10.05;5.32;;;;;;;9.30;100.00;103801.25;10333820;28;20026;-73
2023/12/16 12:09:01;;;;;;;8.05;4.68;;;;;;;9.35;100.00;103799.06;10332997;28;20308;-73
2023/12/16 12:14:03;;;;;;;6.50;4.97;;;;;;;9.35;100.00;103780.13;10334413;28;20034;-72
2023/12/16 12:19:04;;;;;;;15.52;6.05;;;;;;;9.41;100.00;103784.19;10332786;28;20311;-73
2023/12/16 12:24:05;;;;;;;9.80;4.80;;;;;;;9.40;100.00;103788.72;10298453;28;20120;-72
2023/12/16 12:29:06;;;;;;;6.57;4.47;;;;;;;9.42;100.00;103773.25;10348050;28;20038;-72
2023/12/16 12:34:06;;;;;;;6.68;6.00;;;;;;;9.45;100.00;103761.34;10332402;28;20397;-72
2023/12/16 12:39:07;;;;;;;12.48;6.55;;;;;;;9.49;100.00;103757.41;10331521;28;20030;-73
2023/12/16 12:44:13;;;;;;;11.77;6.80;;;;;;;9.51;100.00;103742.78;10332528;28;20412;-73
2023/12/16 12:49:14;;;;;;;7.90;7.13;;;;;;;9.58;100.00;103745.00;10331450;28;20022;-72
2023/12/16 12:54:14;;;;;;;6.97;6.05;;;;;;;9.68;100.00;103735.19;10331837;28;20442;-73
2023/12/16 12:59:15;;;;;;;6.97;6.38;;;;;;;9.83;100.00;103743.91;10331569;28;20137;-72
2023/12/16 13:04:16;;;;;;;16.05;6.90;;;;;;;9.86;100.00;103749.06;10331783;28;20066;-72
2023/12/16 13:09:18;;;;;;;13.73;6.55;;;;;;;9.90;100.00;103751.41;10347776;28;20037;-73
2023/12/16 13:14:19;;;;;;;11.38;5.63;;;;;;;9.97;100.00;103746.38;10331491;28;20085;-73
2023/12/16 13:19:19;;;;;;;10.88;5.95;;;;;;;10.06;100.00;103744.78;10331257;28;20045;-73
2023/12/16 13:24:20;;;;;;;7.65;5.43;;;;;;;10.13;100.00;103740.56;10330904;28;20049;-73
2023/12/16 13:29:22;;;;;;;11.30;5.40;;;;;;;10.20;100.00;103741.78;10330405;28;20170;-73
2023/12/16 13:34:23;;;;;;;9.48;4.82;;;;;;;10.24;100.00;103729.72;10332001;28;20069;-73
2023/12/16 13:39:23;;;;;;;7.90;6.38;;;;;;;10.29;100.00;103724.81;10330966;28;20065;-73
2023/12/16 13:44:24;;;;;;;9.60;4.80;;;;;;;10.37;100.00;103732.31;10331688;28;20057;-73
2023/12/16 13:49:24;;;;;;;4.78;4.30;;;;;;;10.35;100.00;103734.28;10329368;28;20038;-75
2023/12/16 13:54:25;;;;;;;8.45;4.38;;;;;;;10.29;100.00;103732.94;10305126;28;20078;-72
2023/12/16 13:59:25;;;;;;;10.43;5.25;;;;;;;10.32;100.00;103734.56;10331081;28;20086;-74
2023/12/16 14:04:25;;;;;;;8.50;5.05;;;;;;;10.38;100.00;103723.22;10336711;28;20042;-74
2023/12/16 14:09:26;;;;;;;6.05;4.80;;;;;;;10.38;100.00;103713.22;10337556;28;20038;-73
2023/12/16 14:14:27;;;;;;;8.82;4.45;;;;;;;10.39;100.00;103709.53;10337532;28;20097;-72
2023/12/16 14:19:27;;;;;;;9.82;4.47;;;;;;;10.40;100.00;103708.56;10338377;28;20382;-73
2023/12/16 14:24:27;;;;;;;3.65;3.35;;;;;;;10.33;100.00;103699.19;10337900;28;20039;-72
2023/12/16 14:29:28;;;;;;;3.97;3.67;;;;;;;10.31;100.00;103695.78;10335844;28;20030;-72
2023/12/16 14:34:41;;;;;;;11.05;3.65;;;;;;;10.31;100.00;103695.78;10336218;28;20030;-73
2023/12/16 14:39:41;;;;;;;4.65;3.83;;;;;;;10.31;100.00;103697.63;10318980;28;20026;-72
2023/12/16 14:44:42;;;;;;;6.88;4.18;;;;;;;10.26;100.00;103676.31;10336270;28;20073;-72
2023/12/16 14:49:44;;;;;;;9.68;4.40;;;;;;;10.20;100.00;103658.69;10337035;28;20430;-72
2023/12/16 14:54:45;;;;;;;4.70;3.90;;;;;;;10.16;100.00;103653.69;10336369;28;20110;-73
2023/12/16 14:59:45;;;;;;;13.05;2.95;;;;;;;10.19;100.00;103673.22;10334154;28;20089;-72
2023/12/16 15:04:46;;;;;;;3.72;2.30;;;;;;;10.27;100.00;103664.50;10335499;28;20181;-73
2023/12/16 15:09:46;;;;;;;8.73;3.80;;;;;;;10.28;100.00;103663.53;10318074;28;20030;-73
2023/12/16 15:14:46;;;;;;;13.75;2.97;;;;;;;10.18;100.00;103654.41;10335173;28;20509;-73
2023/12/16 15:19:47;;;;;;;6.70;3.17;;;;;;;10.21;100.00;103667.66;10335484;28;20037;-73
2023/12/16 15:24:48;;;;;;;3.05;2.85;;;;;;;10.19;100.00;103675.94;10334626;28;20037;-75
2023/12/16 15:29:48;;;;;;;8.25;3.13;;;;;;;10.17;100.00;103687.88;10333823;28;20070;-73
2023/12/16 15:34:49;;;;;;;9.20;2.65;;;;;;;10.20;100.00;103685.78;10335006;28;20038;-73
2023/12/16 15:39:49;;;;;;;12.35;3.78;;;;;;;10.20;100.00;103693.03;10334514;28;20084;-73
2023/12/16 15:44:50;;;;;;;3.58;3.28;;;;;;;10.19;100.00;103691.34;10280574;28;20046;-73
2023/12/16 15:49:52;;;;;;;7.38;3.60;;;;;;;10.20;100.00;103674.94;10337090;28;20386;-73
2023/12/16 15:54:52;;;;;;;3.40;2.90;;;;;;;10.23;100.00;103674.69;10337632;28;20121;-73
2023/12/16 15:59:53;;;;;;;8.82;2.33;;;;;;;10.16;100.00;103665.38;10333702;28;20137;-73
2023/12/16 16:04:53;;;;;;;4.85;3.15;;;;;;;10.25;100.00;103666.44;10331767;28;20054;-73
2023/12/16 16:09:54;;;;;;;6.95;3.47;;;;;;;10.25;100.00;103672.72;10333173;28;20038;-73
2023/12/16 16:14:54;;;;;;;10.55;4.00;;;;;;;10.28;100.00;103660.81;10331877;28;20105;-73
2023/12/16 16:19:55;;;;;;;6.90;3.75;;;;;;;10.29;100.00;103669.78;10332722;28;20034;-73
2023/12/16 16:24:55;;;;;;;9.07;3.40;;;;;;;10.33;100.00;103676.66;10331156;28;20064;-73
2023/12/16 16:29:55;;;;;;;5.28;3.85;;;;;;;10.38;100.00;103688.00;10332215;28;20054;-73
2023/12/16 16:34:56;;;;;;;1.95;1.85;;;;;;;10.40;100.00;103689.59;10334026;28;20034;-73
2023/12/16 16:39:57;;;;;;;17.67;3.13;;;;;;;10.48;100.00;103703.34;10332980;28;20034;-73
2023/12/16 16:44:58;;;;;;;5.18;2.53;;;;;;;10.33;100.00;103677.53;10331721;28;20042;-73
2023/12/16 16:49:59;;;;;;;3.67;3.35;;;;;;;10.42;100.00;103682.19;10332214;28;20042;-73
2023/12/16 16:54:59;;;;;;;4.57;2.50;;;;;;;10.40;100.00;103686.88;10332434;28;20033;-73
2023/12/16 17:00:08;;;;;;;8.10;2.70;;;;;;;10.35;100.00;103659.31;10333442;28;20149;-73
2023/12/16 17:05:09;;;;;;;8.52;4.43;;;;;;;10.28;100.00;103641.84;10331670;28;20038;-73
2023/12/16 17:10:10;;;;;;;7.22;4.15;;;;;;;10.34;100.00;103662.13;10346511;28;20169;-73
2023/12/16 17:15:10;;;;;;;18.02;7.22;;;;;;;10.32;100.00;103681.22;10330995;28;20114;-73
2023/12/16 17:20:11;;;;;;;13.60;6.10;;;;;;;10.32;100.00;103664.97;10330406;28;20062;-74
2023/12/16 17:25:12;;;;;;;9.10;5.75;;;;;;;10.30;100.00;103661.53;10331492;28;20133;-73
2023/12/16 17:30:14;;;;;;;24.05;5.22;;;;;;;10.28;100.00;103662.66;10330458;28;20039;-73
2023/12/16 17:35:15;;;;;;;8.40;3.40;;;;;;;10.31;100.00;103659.72;10333540;28;20034;-73
2023/12/16 17:40:15;;;;;;;4.20;3.90;;;;;;;10.35;100.00;103653.03;10337394;28;20398;-73
2023/12/16 17:45:16;;;;;;;7.35;3.45;;;;;;;10.37;100.00;103662.75;10337862;28;20441;-74
2023/12/16 17:50:16;;;;;;;7.05;3.55;;;;;;;10.42;100.00;103671.34;10338269;28;20116;-73
2023/12/16 17:55:17;;;;;;;5.50;3.25;;;;;;;10.41;100.00;103675.06;10338002;28;20042;-73
2023/12/16 18:00:18;;;;;;;3.72;3.42;;;;;;;10.41;100.00;103683.19;10338426;28;20061;-73
2023/12/16 18:05:19;;;;;;;5.10;4.20;;;;;;;10.43;100.00;103678.50;10338676;28;20457;-73
2023/12/16 18:10:20;;;;;;;10.65;5.13;;;;;;;10.39;100.00;103665.31;10337811;28;20063;-73
2023/12/16 18:15:20;;;;;;;9.55;6.22;;;;;;;10.39;100.00;103654.50;10337506;28;20109;-73
2023/12/16 18:20:26;;;;;;;10.00;6.28;;;;;;;10.37;100.00;103660.06;10335571;28;20084;-73
2023/12/16 18:25:27;;;;;;;5.15;3.65;;;;;;;10.38;100.00;103667.19;10338317;28;20034;-73
2023/12/16 18:30:28;;;;;;;12.07;5.88;;;;;;;10.40;100.00;103676.06;10337110;28;20057;-73
2023/12/16 18:35:33;;;;;;;31.23;8.65;;;;;;;10.46;100.00;103667.41;10337786;28;20034;-73
2023/12/16 18:40:35;;;;;;;14.27;11.90;;;;;;;10.45;100.00;103681.06;10335933;28;20096;-73
2023/12/16 18:45:37;;;;;;;19.75;12.63;;;;;;;10.37;100.00;103681.72;10337416;28;20061;-73
2023/12/16 18:50:37;;;;;;;10.88;8.23;;;;;;;10.36;100.00;103685.41;10338742;28;20038;-73
2023/12/16 18:55:38;;;;;;;11.43;7.82;;;;;;;10.40;100.00;103711.25;10336765;28;20426;-73
2023/12/16 19:00:38;;;;;;;14.43;8.55;;;;;;;10.36;100.00;103723.31;10351008;28;20053;-73
2023/12/16 19:05:38;;;;;;;9.50;7.75;;;;;;;10.38;100.00;103706.94;10335696;28;20077;-73
2023/12/16 19:10:39;;;;;;;9.30;7.95;;;;;;;10.38;100.00;103720.50;10335536;28;20058;-72
2023/12/16 19:15:39;;;;;;;12.20;8.43;;;;;;;10.36;100.00;103730.59;10336362;28;20493;-73
2023/12/16 19:20:40;;;;;;;15.85;11.07;;;;;;;10.39;100.00;103750.16;10336049;28;20089;-72
2023/12/16 19:25:40;;;;;;;10.55;7.45;;;;;;;10.35;100.00;103751.41;10335864;28;20121;-73
2023/12/16 19:30:41;;;;;;;13.68;8.18;;;;;;;10.34;100.00;103757.81;10335237;28;20072;-73
2023/12/16 19:35:41;;;;;;;22.27;7.20;;;;;;;10.29;100.00;103768.16;10350395;28;20034;-73
2023/12/16 19:40:44;;;;;;;20.15;6.53;;;;;;;10.29;100.00;103761.88;10334229;28;20053;-73
2023/12/16 19:45:45;;;;;;;10.15;5.88;;;;;;;10.26;100.00;103754.88;10333640;28;20113;-73
2023/12/16 19:50:45;;;;;;;6.40;5.05;;;;;;;10.34;100.00;103757.81;10333586;28;20125;-73
2023/12/16 19:55:46;;;;;;;15.07;4.55;;;;;;;10.42;100.00;103765.31;10348787;28;20494;-73
2023/12/16 20:00:47;;;;;;;6.10;3.65;;;;;;;10.41;100.00;103761.75;10333402;28;20093;-73
2023/12/16 20:05:50;;;;;;;8.98;4.57;;;;;;;10.42;100.00;103741.78;10332104;28;20080;-73
2023/12/16 20:10:50;;;;;;;14.50;4.38;;;;;;;10.40;100.00;103735.66;10331500;28;20073;-73
2023/12/16 20:15:51;;;;;;;9.98;4.75;;;;;;;10.39;100.00;103742.03;10334345;28;20066;-73
2023/12/16 20:20:52;;;;;;;4.22;3.55;;;;;;;10.45;100.00;103749.66;10333016;28;20129;-73
2023/12/16 20:25:52;;;;;;;6.75;3.33;;;;;;;10.47;100.00;103744.13;10332153;28;20129;-73
2023/12/16 20:30:53;;;;;;;4.20;3.83;;;;;;;10.42;100.00;103751.75;10348548;28;20042;-73
2023/12/16 20:35:53;;;;;;;19.75;4.03;;;;;;;10.43;100.00;103742.63;10331964;28;20042;-73
2023/12/16 20:40:54;;;;;;;3.17;2.88;;;;;;;10.45;100.00;103744.22;10333353;28;20457;-73
2023/12/16 20:45:54;;;;;;;10.15;3.40;;;;;;;10.44;100.00;103756.06;10332307;28;20092;-73
2023/12/16 20:50:55;;;;;;;7.32;3.88;;;;;;;10.40;100.00;103745.59;10332870;28;20072;-73
2023/12/16 20:55:56;;;;;;;8.18;4.15;;;;;;;10.40;100.00;103737.47;10333887;28;20041;-73
2023/12/16 21:00:58;;;;;;;7.65;3.17;;;;;;;10.36;100.00;103720.59;10316115;28;20063;-73
2023/12/16 21:05:59;;;;;;;14.55;4.13;;;;;;;10.35;100.00;103696.38;10345017;28;20033;-73
2023/12/16 21:10:59;;;;;;;8.00;3.60;;;;;;;10.22;100.00;103702.78;10344135;28;20113;-73
2023/12/16 21:15:59;;;;;;;6.38;3.38;;;;;;;10.28;100.00;103706.00;10330164;28;20049;-73
2023/12/16 21:21:00;;;;;;;13.77;3.80;;;;;;;10.27;100.00;103712.38;10329994;28;20057;-73
2023/12/16 21:26:00;;;;;;;4.88;3.72;;;;;;;10.27;100.00;103713.25;10329543;28;20044;-73
2023/12/16 21:31:01;;;;;;;9.15;3.20;;;;;;;10.32;100.00;103724.56;10328029;28;20039;-73
2023/12/16 21:36:01;;;;;;;8.30;4.80;;;;;;;10.42;100.00;103724.66;10329470;28;20486;-73
2023/12/16 21:41:02;;;;;;;11.57;5.35;;;;;;;10.45;100.00;103746.94;10329969;28;20104;-73
2023/12/16 21:46:02;;;;;;;17.33;4.93;;;;;;;10.49;100.00;103734.00;10329082;28;20065;-73
2023/12/16 21:51:03;;;;;;;13.40;4.10;;;;;;;10.42;100.00;103725.53;10329599;28;20038;-73
2023/12/16 21:56:04;;;;;;;12.32;4.55;;;;;;;10.38;100.00;103709.66;10328424;28;20045;-73
2023/12/16 22:01:04;;;;;;;5.40;4.90;;;;;;;10.32;100.00;103716.44;10287158;28;1216725;-73
2023/12/16 22:06:05;;;;;;;5.03;2.83;;;;;;;10.30;100.00;103714.84;10330090;28;20038;-73
2023/12/16 22:11:06;;;;;;;6.35;3.10;;;;;;;10.29;100.00;103713.97;10330067;28;20031;-73
2023/12/16 22:16:10;;;;;;;13.80;3.42;;;;;;;10.38;100.00;103720.50;10328824;28;20034;-73
2023/12/16 22:21:11;;;;;;;5.03;3.60;;;;;;;10.44;100.00;103704.59;10333235;28;20038;-73
2023/12/16 22:26:11;;;;;;;5.28;3.85;;;;;;;10.34;100.00;103702.75;10338399;28;20033;-73
2023/12/16 22:31:11;;;;;;;6.68;3.72;;;;;;;10.33;100.00;103706.47;10353442;28;20042;-74
2023/12/16 22:36:13;;;;;;;6.90;3.80;;;;;;;10.34;100.00;103716.31;10336687;28;20168;-74
2023/12/16 22:41:13;;;;;;;3.42;2.65;;;;;;;10.31;100.00;103714.72;10336440;28;20039;-74
2023/12/16 22:46:13;;;;;;;10.13;3.22;;;;;;;10.25;100.00;103720.63;10336846;28;20035;-74